createdAt,value
2023-03-12T00:02:24.983Z,4.65
2023-03-12T00:04:52.324Z,5.03
2023-03-12T00:07:19.164Z,5.15
2023-03-12T00:09:46.384Z,5.45
2023-03-12T00:12:13.258Z,5.38
2023-03-12T00:14:40.347Z,5.03
2023-03-12T00:17:07.305Z,4.80
2023-03-12T00:19:34.666Z,4.95
2023-03-12T00:22:01.765Z,4.93
2023-03-12T00:24:28.925Z,4.95
2023-03-12T00:26:56.007Z,4.60
2023-03-12T00:29:23.008Z,5.10
2023-03-12T00:31:51.961Z,4.72
2023-03-12T00:34:19.001Z,4.55
2023-03-12T00:36:45.983Z,4.75
2023-03-12T00:39:12.962Z,4.50
2023-03-12T00:41:40.222Z,3.80
2023-03-12T00:44:07.193Z,4.53
2023-03-12T00:46:34.262Z,3.92
2023-03-12T00:49:01.164Z,4.13
2023-03-12T00:51:28.485Z,4.43
2023-03-12T00:53:56.199Z,4.75
2023-03-12T00:56:24.805Z,4.88
2023-03-12T00:58:52.220Z,5.20
2023-03-12T01:01:20.056Z,4.35
2023-03-12T01:03:47.817Z,4.78
2023-03-12T01:06:14.774Z,5.10
2023-03-12T01:08:42.607Z,3.75
2023-03-12T01:11:13.838Z,4.32
2023-03-12T01:13:41.383Z,4.10
2023-03-12T01:16:08.690Z,4.88
2023-03-12T01:18:36.483Z,4.43
2023-03-12T01:21:03.581Z,4.63
2023-03-12T01:23:30.886Z,4.78
2023-03-12T01:25:59.631Z,4.88
2023-03-12T01:28:26.877Z,4.20
2023-03-12T01:30:54.174Z,4.40
2023-03-12T01:33:23.152Z,5.60
2023-03-12T01:35:50.716Z,4.63
2023-03-12T01:38:19.463Z,5.00
2023-03-12T01:40:46.941Z,4.40
2023-03-12T01:43:33.009Z,5.38
2023-03-12T01:46:30.304Z,4.40
2023-03-12T01:49:08.891Z,5.35
2023-03-12T01:51:54.376Z,5.10
2023-03-12T01:54:31.190Z,4.65
2023-03-12T01:56:58.638Z,4.18
2023-03-12T01:59:35.809Z,4.38
2023-03-12T02:02:03.878Z,4.50
2023-03-12T02:04:31.798Z,5.47
2023-03-12T02:07:05.727Z,4.45
2023-03-12T02:09:34.447Z,4.80
2023-03-12T02:12:01.720Z,4.50
2023-03-12T02:14:29.348Z,4.22
2023-03-12T02:16:57.364Z,4.10
2023-03-12T02:19:32.969Z,4.60
2023-03-12T02:22:00.209Z,4.10
2023-03-12T02:24:33.102Z,5.53
2023-03-12T02:27:01.304Z,3.90
2023-03-12T02:29:31.078Z,4.80
2023-03-12T02:31:59.317Z,4.50
2023-03-12T02:34:26.359Z,4.15
2023-03-12T02:36:53.902Z,3.78
2023-03-12T02:39:20.865Z,3.83
2023-03-12T02:42:06.110Z,3.70
2023-03-12T02:44:34.550Z,3.78
2023-03-12T02:47:02.319Z,3.60
2023-03-12T02:49:31.642Z,4.32
2023-03-12T02:52:00.045Z,3.80
2023-03-12T02:54:27.174Z,3.45
2023-03-12T02:56:55.225Z,3.75
2023-03-12T02:59:25.964Z,4.00
2023-03-12T03:01:56.512Z,4.68
2023-03-12T03:04:24.000Z,3.80
2023-03-12T03:06:51.480Z,4.50
2023-03-12T03:09:19.384Z,3.28
2023-03-12T03:11:46.077Z,3.30
2023-03-12T03:14:12.984Z,2.80
2023-03-12T03:16:39.741Z,3.17
2023-03-12T03:19:07.167Z,3.05
2023-03-12T03:21:34.927Z,3.53
2023-03-12T03:24:01.692Z,3.50
2023-03-12T03:28:55.209Z,2.85
2023-03-12T03:31:22.227Z,3.03
2023-03-12T03:33:49.105Z,3.00
2023-03-12T03:36:16.680Z,3.35
2023-03-12T03:38:52.152Z,2.97
2023-03-12T03:41:20.803Z,3.85
2023-03-12T03:43:48.078Z,3.10
2023-03-12T03:46:17.844Z,3.42
2023-03-12T03:48:50.942Z,3.60
2023-03-12T03:51:17.791Z,3.03
2023-03-12T03:53:47.466Z,3.28
2023-03-12T03:56:16.259Z,3.55
2023-03-12T03:58:47.446Z,3.35
2023-03-12T04:01:15.542Z,3.35
2023-03-12T04:03:43.582Z,3.80
2023-03-12T04:06:11.018Z,3.38
2023-03-12T04:08:38.527Z,3.88
2023-03-12T04:11:15.202Z,3.45
2023-03-12T04:13:42.659Z,3.85
2023-03-12T04:16:11.119Z,3.67
2023-03-12T04:18:38.262Z,3.45
2023-03-12T04:21:07.182Z,3.42
2023-03-12T04:23:35.248Z,4.15
2023-03-12T04:26:02.157Z,4.35
2023-03-12T04:28:29.984Z,3.45
2023-03-12T04:31:01.466Z,3.63
2023-03-12T04:33:36.846Z,3.47
2023-03-12T04:36:04.526Z,3.40
2023-03-12T04:38:31.842Z,4.50
2023-03-12T04:41:03.173Z,4.32
2023-03-12T04:43:31.075Z,4.65
2023-03-12T04:45:58.494Z,4.30
2023-03-12T04:48:26.046Z,3.95
2023-03-12T04:50:53.532Z,4.28
2023-03-12T04:53:20.862Z,4.07
2023-03-12T04:55:48.998Z,4.10
2023-03-12T04:58:17.250Z,3.65
2023-03-12T05:00:43.988Z,3.78
2023-03-12T05:03:11.370Z,4.60
2023-03-12T05:05:38.135Z,4.32
2023-03-12T05:08:05.602Z,4.22
2023-03-12T05:10:34.227Z,3.90
2023-03-12T05:13:01.323Z,4.32
2023-03-12T05:15:28.447Z,3.47
2023-03-12T05:17:55.198Z,4.32
2023-03-12T05:20:22.098Z,6.30
2023-03-12T05:22:49.059Z,4.30
2023-03-12T05:25:16.700Z,6.20
2023-03-12T05:27:43.478Z,4.60
2023-03-12T05:30:11.551Z,4.78
2023-03-12T05:32:38.789Z,4.45
2023-03-12T05:35:06.015Z,4.38
2023-03-12T05:37:33.298Z,5.38
2023-03-12T05:40:00.719Z,4.72
2023-03-12T05:42:27.562Z,6.28
2023-03-12T05:44:57.046Z,5.70
2023-03-12T05:47:23.688Z,5.13
2023-03-12T05:49:50.759Z,5.32
2023-03-12T05:52:17.481Z,6.00
2023-03-12T05:54:44.320Z,7.85
2023-03-12T05:57:11.067Z,5.65
2023-03-12T05:59:38.380Z,6.70
2023-03-12T06:02:07.392Z,6.35
2023-03-12T06:04:34.309Z,6.20
2023-03-12T06:07:01.152Z,6.65
2023-03-12T06:09:28.566Z,6.05
2023-03-12T06:11:55.838Z,6.75
2023-03-12T06:14:22.754Z,8.40
2023-03-12T06:16:50.163Z,10.45
2023-03-12T06:19:16.950Z,7.75
2023-03-12T06:21:47.008Z,8.95
2023-03-12T06:24:14.295Z,8.68
2023-03-12T06:27:01.254Z,8.77
2023-03-12T06:29:27.955Z,9.70
2023-03-12T06:31:56.225Z,9.25
2023-03-12T06:34:23.166Z,9.85
2023-03-12T06:36:49.945Z,9.50
2023-03-12T06:39:16.674Z,9.93
2023-03-12T06:41:43.389Z,11.18
2023-03-12T06:44:10.057Z,10.55
2023-03-12T06:46:37.218Z,10.35
2023-03-12T06:49:04.052Z,12.48
2023-03-12T06:51:30.769Z,12.35
2023-03-12T06:53:57.603Z,12.05
2023-03-12T06:56:24.247Z,12.93
2023-03-12T06:58:51.085Z,11.95
2023-03-12T07:01:17.783Z,12.65
2023-03-12T07:03:44.662Z,13.30
2023-03-12T07:06:16.266Z,12.43
2023-03-12T07:08:43.428Z,13.93
2023-03-12T07:11:10.528Z,12.77
2023-03-12T07:13:37.432Z,13.70
2023-03-12T07:16:04.624Z,15.45
2023-03-12T07:18:31.408Z,14.63
2023-03-12T07:20:58.498Z,13.32
2023-03-12T07:23:25.261Z,13.82
2023-03-12T07:25:52.589Z,16.58
2023-03-12T07:28:19.991Z,14.00
2023-03-12T07:30:53.208Z,14.13
2023-03-12T07:33:22.122Z,13.77
2023-03-12T07:35:51.470Z,12.35
2023-03-12T07:38:19.004Z,15.68
2023-03-12T07:40:45.860Z,17.35
2023-03-12T07:43:12.966Z,15.18
2023-03-12T07:45:41.445Z,15.50
2023-03-12T07:48:08.460Z,15.75
2023-03-12T07:50:36.504Z,16.55
2023-03-12T07:53:04.524Z,13.90
2023-03-12T07:55:32.935Z,15.35
2023-03-12T07:57:59.840Z,17.00
2023-03-12T08:00:27.639Z,15.88
2023-03-12T08:02:54.960Z,17.63
2023-03-12T08:05:24.725Z,15.77
2023-03-12T08:07:52.500Z,16.33
2023-03-12T08:10:20.620Z,18.13
2023-03-12T08:12:47.928Z,21.00
2023-03-12T08:15:15.146Z,20.85
2023-03-12T08:17:41.966Z,20.50
2023-03-12T08:20:10.270Z,21.23
2023-03-12T08:22:38.065Z,21.58
2023-03-12T08:25:05.650Z,21.95
2023-03-12T08:27:32.735Z,19.50
2023-03-12T08:29:59.602Z,19.88
2023-03-12T08:32:26.553Z,20.05
2023-03-12T08:34:53.353Z,20.63
2023-03-12T08:37:20.004Z,22.08
2023-03-12T08:39:46.661Z,18.17
2023-03-12T08:44:40.038Z,21.92
2023-03-12T08:47:06.697Z,23.25
2023-03-12T08:49:33.421Z,21.70
2023-03-12T08:52:00.808Z,26.00
2023-03-12T08:54:27.537Z,26.10
2023-03-12T08:56:54.792Z,26.00
2023-03-12T08:59:22.398Z,27.15
2023-03-12T09:01:49.433Z,36.88
2023-03-12T09:04:16.687Z,32.42
2023-03-12T09:06:44.012Z,28.35
2023-03-12T09:09:10.976Z,29.13
2023-03-12T09:11:39.786Z,31.77
2023-03-12T09:14:59.487Z,31.15
2023-03-12T09:16:54.949Z,46.22
2023-03-12T09:19:21.776Z,37.88
2023-03-12T09:21:48.474Z,42.42
2023-03-12T09:24:15.118Z,35.70
2023-03-12T09:26:41.817Z,32.17
2023-03-12T09:29:08.506Z,29.50
2023-03-12T09:31:36.567Z,31.50
2023-03-12T09:34:04.696Z,26.85
2023-03-12T09:36:32.148Z,25.95
2023-03-12T09:38:58.820Z,29.83
2023-03-12T09:41:27.775Z,23.48
2023-03-12T09:43:58.965Z,21.45
2023-03-12T09:46:34.543Z,17.33
2023-03-12T09:49:07.014Z,17.02
2023-03-12T09:51:41.664Z,16.38
2023-03-12T09:54:28.706Z,12.73
2023-03-12T09:56:58.462Z,16.30
2023-03-12T09:59:25.145Z,19.45
2023-03-12T10:01:55.215Z,15.32
2023-03-12T10:04:58.610Z,15.35
2023-03-12T10:07:57.503Z,12.85
2023-03-12T10:10:50.437Z,9.75
2023-03-12T10:13:43.755Z,14.25
2023-03-12T10:16:35.427Z,7.57
2023-03-12T10:19:33.722Z,6.30
2023-03-12T10:22:14.215Z,7.57
2023-03-12T10:25:18.499Z,6.95
2023-03-12T10:27:45.463Z,6.18
2023-03-12T10:30:23.414Z,7.22
2023-03-12T10:32:54.269Z,8.25
2023-03-12T10:35:23.457Z,6.20
2023-03-12T10:38:01.480Z,6.45
2023-03-12T10:40:37.136Z,6.70
2023-03-12T10:43:06.924Z,11.60
2023-03-12T10:45:38.799Z,10.30
2023-03-12T10:48:11.814Z,13.10
2023-03-12T10:50:40.748Z,16.70
2023-03-12T10:53:27.861Z,9.93
2023-03-12T10:56:03.810Z,7.57
2023-03-12T10:58:42.234Z,9.20
2023-03-12T11:01:14.818Z,12.80
2023-03-12T11:03:42.925Z,25.92
2023-03-12T11:06:15.788Z,8.88
2023-03-12T11:08:43.159Z,8.05
2023-03-12T11:11:10.080Z,12.40
2023-03-12T11:13:39.221Z,8.35
2023-03-12T11:16:17.856Z,9.65
2023-03-12T11:19:04.175Z,8.27
2023-03-12T11:21:40.191Z,7.15
2023-03-12T11:24:11.479Z,10.82
2023-03-12T11:26:51.994Z,9.05
2023-03-12T11:29:21.504Z,9.40
2023-03-12T11:32:03.036Z,10.50
2023-03-12T11:34:33.571Z,8.48
2023-03-12T11:37:06.546Z,6.35
2023-03-12T11:39:56.484Z,10.32
2023-03-12T11:42:35.815Z,7.93
2023-03-12T11:45:25.562Z,9.32
2023-03-12T11:48:03.730Z,5.93
2023-03-12T11:50:56.231Z,8.43
2023-03-12T11:53:48.172Z,6.70
2023-03-12T11:56:18.935Z,12.85
2023-03-12T11:59:00.327Z,16.17
2023-03-12T12:01:58.325Z,15.35
2023-03-12T12:04:31.364Z,9.88
2023-03-12T12:07:12.595Z,12.27
2023-03-12T12:09:43.486Z,12.23
2023-03-12T12:12:32.251Z,11.18
2023-03-12T12:14:59.278Z,10.93
2023-03-12T12:17:45.336Z,10.77
2023-03-12T12:20:41.817Z,9.77
2023-03-12T12:23:26.888Z,11.15
2023-03-12T12:26:08.283Z,11.75
2023-03-12T12:28:44.900Z,8.98
2023-03-12T12:31:26.778Z,8.23
2023-03-12T12:34:28.257Z,9.40
2023-03-12T12:37:16.796Z,9.70
2023-03-12T12:39:49.576Z,7.60
2023-03-12T12:42:22.057Z,9.13
2023-03-12T12:44:54.098Z,11.35
2023-03-12T12:47:34.736Z,9.93
2023-03-12T12:50:02.668Z,8.63
2023-03-12T12:52:29.996Z,8.85
2023-03-12T12:55:22.015Z,6.82
2023-03-12T12:57:55.717Z,14.52
2023-03-12T13:00:55.012Z,9.00
2023-03-12T13:03:24.195Z,7.50
2023-03-12T13:06:00.649Z,5.57
2023-03-12T13:08:36.344Z,8.48
2023-03-12T13:11:23.628Z,8.05
2023-03-12T13:14:12.336Z,8.18
2023-03-12T13:16:44.066Z,7.18
2023-03-12T13:19:13.932Z,6.25
2023-03-12T13:21:42.322Z,7.47
2023-03-12T13:24:17.868Z,6.70
2023-03-12T13:27:14.264Z,6.00
2023-03-12T13:29:42.093Z,5.40
2023-03-12T13:32:31.240Z,6.18
2023-03-12T13:34:58.327Z,6.50
2023-03-12T13:37:49.795Z,6.47
2023-03-12T13:40:28.804Z,5.15
2023-03-12T13:43:14.653Z,7.60
2023-03-12T13:45:47.325Z,5.85
2023-03-12T13:50:52.186Z,6.65
2023-03-12T13:53:25.356Z,5.97
2023-03-12T13:56:08.378Z,5.70
2023-03-12T13:58:48.272Z,6.20
2023-03-12T14:01:18.313Z,6.35
2023-03-12T14:03:52.286Z,6.25
2023-03-12T14:06:22.089Z,6.45
2023-03-12T14:09:11.000Z,6.05
2023-03-12T14:12:06.926Z,5.32
2023-03-12T14:14:43.682Z,5.35
2023-03-12T14:17:16.888Z,5.97
2023-03-12T14:19:48.356Z,7.57
2023-03-12T14:22:15.670Z,6.20
2023-03-12T14:24:58.063Z,5.90
2023-03-12T14:27:27.672Z,9.20
2023-03-12T14:29:59.685Z,6.28
2023-03-12T14:32:32.064Z,6.45
2023-03-12T14:37:33.422Z,7.20
2023-03-12T14:40:19.452Z,5.78
2023-03-12T14:42:46.433Z,6.18
2023-03-12T14:45:17.948Z,5.03
2023-03-12T14:47:47.469Z,5.47
2023-03-12T14:50:29.692Z,4.88
2023-03-12T14:53:14.431Z,7.68
2023-03-12T14:55:41.309Z,8.32
2023-03-12T14:58:20.756Z,7.07
2023-03-12T15:00:57.961Z,6.88
2023-03-12T15:03:25.876Z,7.97
2023-03-12T15:05:53.138Z,6.18
2023-03-12T15:08:20.607Z,8.40
2023-03-12T15:10:53.101Z,8.20
2023-03-12T15:15:50.517Z,7.60
2023-03-12T15:18:20.667Z,8.93
2023-03-12T15:20:48.879Z,8.27
2023-03-12T15:23:16.561Z,9.10
2023-03-12T15:25:45.580Z,6.20
2023-03-12T15:28:15.756Z,8.30
2023-03-12T15:30:44.379Z,9.00
2023-03-12T15:33:15.873Z,13.15
2023-03-12T15:35:57.933Z,4.68
2023-03-12T15:38:25.721Z,7.32
2023-03-12T15:40:56.541Z,7.25
2023-03-12T15:43:25.482Z,8.77
2023-03-12T15:46:03.768Z,10.90
2023-03-12T15:48:33.857Z,9.15
2023-03-12T15:51:01.021Z,8.70
2023-03-12T15:53:35.156Z,8.15
2023-03-12T15:56:23.314Z,10.30
2023-03-12T15:59:18.441Z,8.70
2023-03-12T16:01:50.143Z,8.60
2023-03-12T16:04:18.240Z,8.98
2023-03-12T16:06:48.542Z,7.07
2023-03-12T16:09:20.502Z,8.38
2023-03-12T16:11:48.340Z,7.22
2023-03-12T16:14:17.364Z,8.82
2023-03-12T16:16:44.652Z,5.50
2023-03-12T16:19:17.147Z,9.05
2023-03-12T16:21:44.234Z,6.82
2023-03-12T16:24:12.096Z,11.07
2023-03-12T16:26:50.771Z,5.82
2023-03-12T16:29:18.646Z,4.75
2023-03-12T16:31:55.494Z,6.18
2023-03-12T16:34:22.736Z,6.85
2023-03-12T16:36:50.152Z,8.18
2023-03-12T16:39:18.933Z,13.32
2023-03-12T16:41:47.176Z,7.45
2023-03-12T16:44:16.549Z,7.95
2023-03-12T16:46:45.143Z,8.90
2023-03-12T16:49:17.277Z,6.13
2023-03-12T16:51:44.398Z,7.00
2023-03-12T16:54:12.194Z,7.70
2023-03-12T16:56:43.704Z,6.10
2023-03-12T16:59:27.045Z,7.55
2023-03-12T17:01:54.492Z,7.53
2023-03-12T17:04:21.650Z,6.30
2023-03-12T17:06:48.982Z,6.82
2023-03-12T17:09:15.840Z,7.65
2023-03-12T17:11:43.395Z,7.43
2023-03-12T17:14:22.324Z,6.22
2023-03-12T17:16:50.166Z,10.10
2023-03-12T17:19:18.149Z,25.15
2023-03-12T17:21:45.535Z,6.80
2023-03-12T17:24:14.430Z,8.98
2023-03-12T17:26:42.780Z,11.77
2023-03-12T17:29:09.836Z,7.65
2023-03-12T17:31:37.655Z,8.82
2023-03-12T17:34:04.904Z,8.32
2023-03-12T17:36:31.715Z,7.65
2023-03-12T17:38:59.021Z,8.93
2023-03-12T17:41:27.458Z,7.85
2023-03-12T17:43:55.755Z,6.70
2023-03-12T17:46:23.449Z,7.32
2023-03-12T17:48:50.366Z,7.95
2023-03-12T17:51:17.145Z,7.32
2023-03-12T17:53:44.402Z,5.88
2023-03-12T17:56:12.892Z,9.15
2023-03-12T17:58:40.182Z,8.80
2023-03-12T18:01:07.578Z,7.72
2023-03-12T18:03:35.031Z,6.78
2023-03-12T18:06:02.813Z,5.70
2023-03-12T18:08:29.870Z,9.60
2023-03-12T18:10:56.962Z,5.28
2023-03-12T18:13:24.159Z,5.68
2023-03-12T18:15:56.297Z,6.63
2023-03-12T18:18:24.857Z,6.15
2023-03-12T18:20:52.778Z,3.95
2023-03-12T18:23:19.690Z,7.45
2023-03-12T18:25:46.848Z,4.53
2023-03-12T18:28:15.645Z,5.78
2023-03-12T18:30:46.238Z,6.13
2023-03-12T18:33:22.558Z,5.32
2023-03-12T18:35:49.788Z,3.28
2023-03-12T18:38:17.190Z,9.20
2023-03-12T18:40:44.236Z,7.90
2023-03-12T18:43:12.060Z,6.78
2023-03-12T18:45:43.913Z,5.63
2023-03-12T18:48:11.267Z,5.85
2023-03-12T18:50:38.890Z,7.55
2023-03-12T18:53:05.779Z,6.07
2023-03-12T18:55:32.973Z,5.68
2023-03-12T18:58:00.095Z,8.65
2023-03-12T19:00:27.106Z,4.60
2023-03-12T19:02:54.769Z,5.35
2023-03-12T19:05:21.697Z,5.43
2023-03-12T19:07:49.163Z,5.50
2023-03-12T19:10:16.814Z,6.80
2023-03-12T19:12:53.612Z,8.07
2023-03-12T19:15:22.345Z,6.28
2023-03-12T19:17:50.035Z,6.57
2023-03-12T19:20:17.617Z,6.10
2023-03-12T19:22:44.874Z,7.95
2023-03-12T19:25:12.364Z,6.28
2023-03-12T19:27:39.625Z,7.60
2023-03-12T19:30:08.364Z,9.63
2023-03-12T19:32:43.410Z,9.90
2023-03-12T19:35:14.014Z,7.45
2023-03-12T19:37:42.222Z,7.20
2023-03-12T19:40:11.023Z,10.93
2023-03-12T19:42:38.732Z,6.90
2023-03-12T19:45:06.704Z,5.47
2023-03-12T19:47:34.008Z,9.75
2023-03-12T19:50:02.772Z,6.40
2023-03-12T19:52:30.200Z,7.25
2023-03-12T19:55:04.623Z,6.20
2023-03-12T19:57:33.828Z,11.70
2023-03-12T20:00:01.128Z,6.88
2023-03-12T20:02:29.212Z,6.07
2023-03-12T20:04:56.632Z,5.53
2023-03-12T20:07:24.110Z,5.82
2023-03-12T20:09:52.040Z,7.85
2023-03-12T20:12:19.363Z,5.07
2023-03-12T20:14:47.104Z,6.72
2023-03-12T20:17:14.268Z,4.57
2023-03-12T20:19:42.887Z,4.93
2023-03-12T20:22:10.117Z,4.90
2023-03-12T20:24:37.453Z,10.25
2023-03-12T20:27:04.872Z,7.20
2023-03-12T20:29:32.162Z,12.02
2023-03-12T20:31:59.773Z,25.85
2023-03-12T20:34:27.267Z,8.30
2023-03-12T20:36:54.614Z,9.50
2023-03-12T20:39:21.551Z,4.28
2023-03-12T20:41:49.541Z,6.05
2023-03-12T20:44:17.220Z,4.55
2023-03-12T20:46:44.662Z,4.25
2023-03-12T20:49:12.013Z,5.43
2023-03-12T20:51:40.688Z,4.80
2023-03-12T20:54:08.140Z,5.35
2023-03-12T20:56:36.270Z,5.57
2023-03-12T20:59:03.548Z,5.05
2023-03-12T21:01:30.934Z,3.65
2023-03-12T21:03:58.761Z,6.63
2023-03-12T21:06:26.887Z,6.15
2023-03-12T21:08:58.321Z,4.75
2023-03-12T21:11:29.506Z,5.88
2023-03-12T21:13:56.777Z,5.20
2023-03-12T21:16:24.373Z,4.05
2023-03-12T21:18:56.512Z,5.10
2023-03-12T21:21:23.835Z,5.45
2023-03-12T21:23:51.291Z,4.88
2023-03-12T21:26:18.852Z,4.75
2023-03-12T21:28:46.186Z,4.93
2023-03-12T21:31:16.373Z,4.88
2023-03-12T21:33:44.264Z,4.13
2023-03-12T21:36:13.122Z,5.45
2023-03-12T21:38:40.957Z,5.22
2023-03-12T21:41:12.297Z,4.70
2023-03-12T21:43:40.130Z,4.75
2023-03-12T21:46:19.324Z,4.45
2023-03-12T21:48:48.361Z,4.95
2023-03-12T21:51:17.161Z,5.93
2023-03-12T21:53:44.966Z,5.85
2023-03-12T21:56:12.462Z,5.03
2023-03-12T21:58:39.687Z,3.75
2023-03-12T22:01:11.280Z,5.28
2023-03-12T22:03:39.353Z,7.80
2023-03-12T22:06:07.164Z,5.18
2023-03-12T22:08:34.921Z,5.57
2023-03-12T22:11:03.253Z,3.95
2023-03-12T22:13:30.678Z,4.90
2023-03-12T22:16:00.415Z,5.28
2023-03-12T22:18:28.670Z,5.22
2023-03-12T22:20:57.761Z,4.68
2023-03-12T22:23:25.308Z,4.18
2023-03-12T22:25:52.509Z,5.63
2023-03-12T22:28:20.398Z,5.22
2023-03-12T22:30:48.036Z,6.13
2023-03-12T22:33:15.028Z,4.47
2023-03-12T22:35:47.086Z,6.10
2023-03-12T22:38:14.923Z,4.88
2023-03-12T22:40:42.217Z,5.80
2023-03-12T22:43:10.017Z,5.68
2023-03-12T22:45:37.550Z,5.80
2023-03-12T22:48:05.363Z,5.35
2023-03-12T22:50:33.257Z,5.43
2023-03-12T22:53:00.977Z,6.45
2023-03-12T22:55:28.215Z,6.68
2023-03-12T22:57:55.553Z,6.53
2023-03-12T23:00:23.175Z,5.90
2023-03-12T23:02:51.074Z,6.75
2023-03-12T23:05:18.528Z,6.53
2023-03-12T23:07:46.113Z,7.97
2023-03-12T23:10:13.602Z,6.50
2023-03-12T23:12:40.966Z,7.20
2023-03-12T23:15:09.017Z,7.63
2023-03-12T23:17:36.330Z,7.07
2023-03-12T23:20:05.798Z,6.95
2023-03-12T23:22:33.179Z,7.13
2023-03-12T23:25:00.434Z,7.32
2023-03-12T23:27:27.688Z,7.50
2023-03-12T23:29:54.796Z,6.88
2023-03-12T23:32:21.853Z,6.60
2023-03-12T23:34:49.400Z,8.25
2023-03-12T23:37:16.902Z,7.18
2023-03-12T23:39:54.124Z,6.90
2023-03-12T23:42:21.879Z,7.40
2023-03-12T23:44:49.029Z,7.60
2023-03-12T23:47:16.600Z,9.23
2023-03-12T23:49:43.920Z,8.68
2023-03-12T23:52:11.061Z,7.38
2023-03-12T23:54:38.204Z,7.57
2023-03-12T23:57:05.597Z,7.85
2023-03-12T23:59:33.100Z,8.60
